KTOR/TOR METAR and TAF weather

Enter ICAO airport designator
Station Type Date Time Source
KTOR METAR 2019/04/19 09:53 UTC NOAA

KTOR 190953Z AUTO 12006KT 10SM CLR M01/M03 A3014 RMK AO2 SLP208 T10111033


Station Type Date Time Source
KTOR Decoded METAR 2019/04/19 09:53 UTC NOAA

TORRINGTON MUNICIPAL AIRPORT, WY, United States (KTOR) 42-03N 104-09W 1277M
Apr 19, 2019 - 05:53 AM EDT / 2019.04.19 0953 UTC
Wind: from the ESE (120 degrees) at 7 MPH (6 KT):0
Visibility: 10 mile(s):0
Sky conditions: clear
Temperature: 30.0 F (-1.1 C)
Windchill: 23 F (-5 C):1
Dew Point: 26.1 F (-3.3 C)
Relative Humidity: 84%
Pressure (altimeter): 30.14 in. Hg (1020 hPa)
ob: KTOR 190953Z AUTO 12006KT 10SM CLR M01/M03 A3014 RMK AO2 SLP208 T10111033
cycle: 10

Station Type Date Time Source
KTOR TAF UTC NOAA

Error!

Example: see airport list